Time;durP1;ratioP1;P1;durP2;ratioP2;P2;SDS_P1;SDS_P2;PMS_P1;PMS_P2;Temp;Humidity;BMP_temperature;BMP_pressure;BME280_temperature;BME280_humidity;BME280_pressure;Samples;Min_cycle;Max_cycle;Signal;HPM_P1;HPM_P2
2024/01/31 00:00:08;;;;;;;9.73;1.17;;;5.80;99.90;;;;;;5074276;28;20052;-82
2024/01/31 00:02:35;;;;;;;7.78;0.98;;;5.80;99.90;;;;;;5074806;28;20033;-86
2024/01/31 00:05:02;;;;;;;9.65;1.58;;;5.80;99.90;;;;;;5074345;28;20056;-84
2024/01/31 00:07:28;;;;;;;6.82;1.00;;;5.80;99.90;;;;;;5074956;28;20052;-88
2024/01/31 00:09:53;;;;;;;13.57;1.33;;;5.80;99.90;;;;;;5056896;28;20044;-80
2024/01/31 00:12:19;;;;;;;5.07;1.05;;;5.80;99.90;;;;;;5074811;28;20567;-79
2024/01/31 00:14:45;;;;;;;8.30;1.48;;;5.80;99.90;;;;;;5074258;28;20051;-81
2024/01/31 00:17:10;;;;;;;6.80;1.42;;;5.80;99.90;;;;;;5074777;28;20087;-90
2024/01/31 00:19:36;;;;;;;6.65;1.27;;;5.80;99.90;;;;;;5056662;28;20055;-88
2024/01/31 00:22:02;;;;;;;7.97;1.42;;;5.80;99.90;;;;;;5056941;28;20048;-92
2024/01/31 00:24:27;;;;;;;5.82;1.55;;;5.80;99.90;;;;;;5075513;28;20052;-78
2024/01/31 00:26:53;;;;;;;7.90;1.25;;;5.80;99.90;;;;;;5076439;28;20044;-84
2024/01/31 00:29:19;;;;;;;4.55;1.10;;;5.80;99.90;;;;;;5076192;28;20055;-86
2024/01/31 00:31:45;;;;;;;12.95;1.73;;;5.80;99.90;;;;;;5058754;28;20087;-87
2024/01/31 00:34:11;;;;;;;8.43;1.40;;;5.80;99.90;;;;;;5076306;28;20052;-86
2024/01/31 00:36:36;;;;;;;15.43;1.95;;;5.80;99.90;;;;;;5040417;28;20075;-83
2024/01/31 00:39:03;;;;;;;8.68;1.70;;;5.80;99.90;;;;;;5074438;28;20409;-89
2024/01/31 00:41:30;;;;;;;11.63;2.17;;;5.80;99.90;;;;;;5074714;28;20063;-90
2024/01/31 00:43:56;;;;;;;7.03;1.30;;;5.70;99.90;;;;;;5074821;28;20120;-92
2024/01/31 00:46:21;;;;;;;4.43;0.95;;;5.70;99.90;;;;;;5057161;28;20106;-88
2024/01/31 00:48:47;;;;;;;7.13;0.80;;;5.80;99.90;;;;;;5057044;28;20052;-88
2024/01/31 00:51:13;;;;;;;6.53;2.00;;;5.70;99.90;;;;;;5074792;28;20056;-91
2024/01/31 00:53:39;;;;;;;13.57;1.90;;;5.60;99.90;;;;;;5073690;28;20455;-91
2024/01/31 00:56:05;;;;;;;8.98;0.95;;;5.60;99.90;;;;;;5073701;28;20051;-92
2024/01/31 00:58:34;;;;;;;7.30;1.10;;;5.50;99.90;;;;;;5074376;28;20133;-89
2024/01/31 01:01:00;;;;;;;12.23;1.60;;;5.40;99.90;;;;;;5074227;28;20071;-89
2024/01/31 01:03:26;;;;;;;5.45;1.73;;;5.30;99.90;;;;;;5056022;28;20055;-93
2024/01/31 01:05:51;;;;;;;11.70;1.63;;;5.20;99.90;;;;;;5038472;28;20489;-93
2024/01/31 01:08:17;;;;;;;11.20;1.30;;;5.20;99.90;;;;;;5073070;28;20170;-93
2024/01/31 01:10:43;;;;;;;19.13;1.70;;;5.10;99.90;;;;;;5038884;28;20041;-92
2024/01/31 01:13:08;;;;;;;10.48;1.35;;;5.10;99.90;;;;;;5073198;28;20500;-92
2024/01/31 01:15:34;;;;;;;9.80;1.58;;;5.00;99.90;;;;;;5055343;28;20075;-87
2024/01/31 01:18:00;;;;;;;15.82;2.25;;;5.00;99.90;;;;;;5056020;28;20052;-91
2024/01/31 01:20:25;;;;;;;9.55;1.15;;;5.00;99.90;;;;;;5073737;28;20049;-88
2024/01/31 01:22:51;;;;;;;15.23;1.70;;;5.00;99.90;;;;;;5073037;28;20045;-93
2024/01/31 01:25:17;;;;;;;10.75;1.92;;;4.90;99.90;;;;;;5073283;28;20044;-89
2024/01/31 01:27:50;;;;;;;8.82;1.73;;;4.90;99.90;;;;;;5072995;28;20045;-94
2024/01/31 01:30:18;;;;;;;9.95;1.38;;;4.90;99.90;;;;;;5072995;28;20052;-89
2024/01/31 01:32:44;;;;;;;12.00;2.13;;;4.90;99.90;;;;;;5073076;28;20558;-92
2024/01/31 01:35:09;;;;;;;8.85;1.92;;;4.90;99.90;;;;;;5073388;28;20048;-89
2024/01/31 01:37:35;;;;;;;8.70;1.60;;;4.90;99.90;;;;;;5073094;28;20087;-88
2024/01/31 01:40:01;;;;;;;8.50;1.73;;;4.90;99.90;;;;;;5055106;28;20139;-89
2024/01/31 01:42:27;;;;;;;9.95;1.17;;;4.80;99.90;;;;;;5073087;28;20048;-82
2024/01/31 01:44:52;;;;;;;11.88;2.15;;;4.90;99.90;;;;;;5072430;28;20063;-81
2024/01/31 01:47:19;;;;;;;6.90;1.20;;;4.80;99.90;;;;;;5055459;28;20044;-91
2024/01/31 01:49:48;;;;;;;11.05;1.50;;;4.80;99.90;;;;;;5076298;28;20143;-87
2024/01/31 01:52:14;;;;;;;9.60;1.60;;;4.80;99.90;;;;;;5074968;28;20049;-89
2024/01/31 01:54:40;;;;;;;6.13;1.40;;;4.80;99.90;;;;;;5072809;28;20496;-89
2024/01/31 01:57:07;;;;;;;6.75;1.08;;;4.70;99.90;;;;;;5055117;28;20055;-89
2024/01/31 01:59:34;;;;;;;11.20;1.10;;;4.70;99.90;;;;;;5072666;28;20052;-86
2024/01/31 02:02:01;;;;;;;7.20;1.40;;;4.70;99.90;;;;;;5072490;28;20048;-88
2024/01/31 02:04:28;;;;;;;11.63;1.60;;;4.60;99.90;;;;;;5053799;28;20142;-83
2024/01/31 02:06:54;;;;;;;9.10;1.45;;;4.60;99.90;;;;;;5072467;28;20052;-93
2024/01/31 02:09:20;;;;;;;15.63;1.52;;;4.60;99.90;;;;;;5056074;28;20122;-88
2024/01/31 02:11:46;;;;;;;11.38;1.48;;;4.60;99.90;;;;;;5054402;28;20055;-83
2024/01/31 02:14:12;;;;;;;7.15;1.05;;;4.60;99.90;;;;;;5072557;28;20048;-89
2024/01/31 02:16:38;;;;;;;14.63;1.48;;;4.60;99.90;;;;;;5038010;28;20416;-89
2024/01/31 02:19:03;;;;;;;12.15;1.17;;;4.60;99.90;;;;;;5054449;28;20052;-93
2024/01/31 02:21:31;;;;;;;7.35;1.25;;;4.70;99.90;;;;;;5037949;28;20417;-85
2024/01/31 02:23:56;;;;;;;10.32;1.30;;;4.60;99.90;;;;;;5072294;28;20092;-87
2024/01/31 02:26:22;;;;;;;8.27;1.60;;;4.60;99.90;;;;;;5074322;28;20075;-89
2024/01/31 02:28:48;;;;;;;6.97;1.15;;;4.70;99.90;;;;;;5055818;28;20408;-89
2024/01/31 02:31:13;;;;;;;8.05;1.40;;;4.60;99.90;;;;;;5054545;28;20045;-89
2024/01/31 02:33:39;;;;;;;6.68;1.38;;;4.70;99.90;;;;;;5072226;28;20127;-87
2024/01/31 02:36:05;;;;;;;10.10;1.30;;;4.70;99.90;;;;;;5072117;28;20435;-89
2024/01/31 02:38:32;;;;;;;6.82;1.17;;;4.70;99.90;;;;;;5072287;28;20052;-93
2024/01/31 02:40:59;;;;;;;11.63;2.00;;;4.70;99.90;;;;;;5054244;28;20106;-89
2024/01/31 02:43:24;;;;;;;8.65;1.20;;;4.70;99.90;;;;;;5078747;28;20056;-91
2024/01/31 02:45:50;;;;;;;4.80;1.23;;;4.70;99.90;;;;;;5058126;28;20051;-86
2024/01/31 02:48:16;;;;;;;5.50;1.33;;;4.70;99.90;;;;;;5076818;28;20111;-86
2024/01/31 02:50:42;;;;;;;6.00;1.20;;;4.70;99.90;;;;;;5076098;28;20087;-89
2024/01/31 02:53:08;;;;;;;5.50;1.33;;;4.70;99.90;;;;;;5076347;28;20058;-81
2024/01/31 02:55:34;;;;;;;10.30;2.13;;;4.70;99.90;;;;;;5076015;28;20419;-90
2024/01/31 02:57:59;;;;;;;11.13;1.30;;;4.70;99.90;;;;;;5058462;28;20433;-88
2024/01/31 03:00:26;;;;;;;7.40;1.77;;;4.70;99.90;;;;;;5062685;28;20056;-93
2024/01/31 03:02:52;;;;;;;8.27;1.45;;;4.70;99.90;;;;;;5058522;28;20040;-89
2024/01/31 03:05:18;;;;;;;6.65;1.17;;;4.70;99.90;;;;;;5075761;28;20051;-88
2024/01/31 03:07:43;;;;;;;16.33;2.15;;;4.70;99.90;;;;;;5041746;28;20059;-89
2024/01/31 03:10:09;;;;;;;13.90;1.38;;;4.70;99.90;;;;;;5058191;28;20048;-86
2024/01/31 03:12:35;;;;;;;13.57;1.27;;;4.80;99.90;;;;;;5076161;28;20056;-87
2024/01/31 03:15:02;;;;;;;7.60;1.17;;;4.80;99.90;;;;;;5057320;28;20500;-90
2024/01/31 03:17:27;;;;;;;11.63;1.23;;;4.70;99.90;;;;;;5076044;28;20032;-91
2024/01/31 03:19:53;;;;;;;4.45;1.20;;;4.70;99.90;;;;;;5081858;28;20166;-93
2024/01/31 03:22:19;;;;;;;8.52;1.67;;;4.70;99.90;;;;;;5075632;28;20055;-88
2024/01/31 03:24:44;;;;;;;4.95;0.98;;;4.60;99.90;;;;;;5076805;28;20483;-89
2024/01/31 03:27:10;;;;;;;11.90;1.70;;;4.60;99.90;;;;;;5071474;28;20048;-91
2024/01/31 03:29:36;;;;;;;6.97;1.17;;;4.50;99.90;;;;;;5089903;28;20040;-91
2024/01/31 03:32:03;;;;;;;7.53;1.40;;;4.50;99.90;;;;;;5073838;28;20051;-93
2024/01/31 03:34:28;;;;;;;9.98;1.80;;;4.40;99.90;;;;;;5089281;28;20052;-91
2024/01/31 03:36:55;;;;;;;7.97;1.35;;;4.40;99.90;;;;;;5079108;28;20099;-94
2024/01/31 03:39:20;;;;;;;11.82;1.95;;;4.30;99.90;;;;;;5076359;28;20044;-78
2024/01/31 03:41:49;;;;;;;14.18;3.13;;;4.20;99.90;;;;;;5075443;28;20369;-79
2024/01/31 03:44:14;;;;;;;8.23;1.17;;;4.20;99.90;;;;;;5074067;28;20535;-81
2024/01/31 03:46:41;;;;;;;10.23;1.38;;;4.10;99.90;;;;;;5074610;28;20044;-83
2024/01/31 03:49:07;;;;;;;14.43;1.92;;;4.10;99.90;;;;;;5056517;28;20048;-82
2024/01/31 03:51:32;;;;;;;7.20;1.20;;;4.00;99.90;;;;;;5074434;28;20045;-93
2024/01/31 03:53:58;;;;;;;9.80;2.45;;;4.00;99.90;;;;;;5074433;28;20056;-88
2024/01/31 03:56:25;;;;;;;11.77;1.60;;;3.90;99.90;;;;;;5075690;28;20072;-89
2024/01/31 03:58:50;;;;;;;16.92;1.83;;;3.90;99.90;;;;;;5074208;28;20133;-83
2024/01/31 04:01:17;;;;;;;9.55;1.73;;;3.90;99.90;;;;;;5055875;28;20651;-88
2024/01/31 04:03:45;;;;;;;9.57;2.17;;;3.80;99.90;;;;;;5074375;28;20070;-81
2024/01/31 04:06:11;;;;;;;5.30;0.93;;;3.80;99.90;;;;;;5056207;28;20551;-81
2024/01/31 04:08:37;;;;;;;12.63;1.50;;;3.80;99.90;;;;;;5056579;28;20106;-80
2024/01/31 04:11:03;;;;;;;7.90;2.08;;;3.70;99.90;;;;;;5074148;28;20083;-85
2024/01/31 04:13:29;;;;;;;8.43;1.48;;;3.70;99.90;;;;;;5074156;28;20098;-93
2024/01/31 04:15:55;;;;;;;14.65;1.50;;;3.60;99.90;;;;;;5076633;28;20178;-91
2024/01/31 04:18:21;;;;;;;8.07;1.40;;;3.60;99.90;;;;;;5074707;28;20037;-76
2024/01/31 04:20:46;;;;;;;7.38;1.08;;;3.60;99.90;;;;;;5073904;28;20052;-81
2024/01/31 04:23:14;;;;;;;13.07;1.88;;;3.60;99.90;;;;;;5073784;28;20139;-85
2024/01/31 04:25:40;;;;;;;5.57;1.27;;;3.70;99.90;;;;;;5073405;28;20492;-92
2024/01/31 04:28:06;;;;;;;10.10;1.85;;;3.70;99.90;;;;;;5073759;28;20060;-86
2024/01/31 04:30:32;;;;;;;9.88;1.38;;;3.70;99.90;;;;;;5056157;28;20079;-82
2024/01/31 04:33:02;;;;;;;14.57;1.80;;;3.70;99.90;;;;;;5055685;28;20577;-90
2024/01/31 04:35:28;;;;;;;8.77;1.25;;;3.70;99.90;;;;;;5075616;28;20048;-86
2024/01/31 04:37:54;;;;;;;10.93;1.33;;;3.70;99.90;;;;;;5057256;28;20527;-79
2024/01/31 04:40:20;;;;;;;6.15;1.05;;;3.70;99.90;;;;;;5073535;28;20048;-77
2024/01/31 04:42:47;;;;;;;9.48;1.33;;;3.70;99.90;;;;;;5073325;28;20045;-86
2024/01/31 04:45:13;;;;;;;7.55;1.25;;;3.60;99.90;;;;;;5073635;28;20051;-83
2024/01/31 04:47:41;;;;;;;7.63;2.03;;;3.60;99.90;;;;;;5055703;28;20087;-85
2024/01/31 04:50:07;;;;;;;9.43;1.40;;;3.60;99.90;;;;;;5073478;28;20040;-90
2024/01/31 04:52:39;;;;;;;15.63;2.08;;;3.60;99.90;;;;;;5073961;28;20048;-94
2024/01/31 04:55:05;;;;;;;6.30;1.13;;;3.60;99.90;;;;;;5076289;28;20488;-85
2024/01/31 04:57:31;;;;;;;7.82;1.33;;;3.60;99.90;;;;;;5038195;28;20086;-83
2024/01/31 04:59:57;;;;;;;14.15;2.58;;;3.60;99.90;;;;;;5073328;28;20056;-85
2024/01/31 05:02:24;;;;;;;8.75;1.20;;;3.60;99.90;;;;;;5054956;28;20052;-82
2024/01/31 05:04:49;;;;;;;10.85;2.25;;;3.60;99.90;;;;;;5072048;28;20086;-80
2024/01/31 05:07:15;;;;;;;12.98;1.20;;;3.60;99.90;;;;;;5056258;28;20056;-87
2024/01/31 05:09:41;;;;;;;6.72;1.25;;;3.60;99.90;;;;;;5073772;28;20080;-81
2024/01/31 05:12:07;;;;;;;6.82;1.17;;;3.60;99.90;;;;;;5073180;28;20091;-89
2024/01/31 05:14:32;;;;;;;8.70;1.10;;;3.60;99.90;;;;;;5056103;28;20052;-89
2024/01/31 05:16:58;;;;;;;8.75;1.77;;;3.50;99.90;;;;;;5057604;28;20045;-83
2024/01/31 05:19:24;;;;;;;5.75;1.13;;;3.50;99.90;;;;;;5072877;28;20044;-81
2024/01/31 05:21:55;;;;;;;7.60;1.20;;;3.50;99.90;;;;;;5072742;28;20044;-81
2024/01/31 05:24:20;;;;;;;14.65;2.05;;;3.50;99.90;;;;;;5072398;28;20567;-86
2024/01/31 05:26:47;;;;;;;9.45;1.83;;;3.50;99.90;;;;;;5072607;28;20049;-86
2024/01/31 05:29:14;;;;;;;6.68;1.13;;;3.40;99.90;;;;;;5055438;28;20063;-86
2024/01/31 05:31:39;;;;;;;6.53;1.60;;;3.40;99.90;;;;;;5039798;28;20052;-88
2024/01/31 05:34:05;;;;;;;8.20;1.70;;;3.40;99.90;;;;;;5057199;28;20477;-90
2024/01/31 05:36:31;;;;;;;6.97;1.42;;;3.40;99.90;;;;;;5075756;28;20462;-92
2024/01/31 05:38:57;;;;;;;5.53;0.90;;;3.40;99.90;;;;;;5076421;28;20048;-92
2024/01/31 05:41:23;;;;;;;9.35;1.13;;;3.30;99.90;;;;;;5055295;28;20084;-89
2024/01/31 05:43:48;;;;;;;9.57;2.03;;;3.30;99.90;;;;;;5072676;28;20048;-82
2024/01/31 05:46:17;;;;;;;10.18;1.52;;;3.20;99.90;;;;;;5071822;28;20186;-81
2024/01/31 05:48:47;;;;;;;9.65;1.50;;;3.30;99.90;;;;;;5072065;28;20049;-83
2024/01/31 05:51:14;;;;;;;11.10;1.35;;;3.20;99.90;;;;;;5054872;28;20092;-81
2024/01/31 05:53:41;;;;;;;8.38;1.95;;;3.20;99.90;;;;;;5055581;28;20143;-82
2024/01/31 05:56:07;;;;;;;7.10;1.50;;;3.20;99.90;;;;;;5058639;28;20048;-86
2024/01/31 05:58:33;;;;;;;6.60;1.35;;;3.20;99.90;;;;;;5054342;28;20052;-89
2024/01/31 06:00:59;;;;;;;6.68;1.33;;;3.10;99.90;;;;;;5076812;28;20060;-77
2024/01/31 06:03:27;;;;;;;7.28;1.30;;;3.10;99.90;;;;;;5079326;28;20135;-79
2024/01/31 06:05:52;;;;;;;14.98;1.70;;;3.10;99.90;;;;;;5039168;28;20524;-90
2024/01/31 06:08:23;;;;;;;13.10;1.60;;;3.10;99.90;;;;;;5072236;28;20467;-91
2024/01/31 06:10:53;;;;;;;10.80;1.80;;;3.10;99.90;;;;;;5054252;28;20049;-92
2024/01/31 06:13:19;;;;;;;8.43;2.25;;;3.10;99.90;;;;;;5055235;28;20080;-93
2024/01/31 06:15:45;;;;;;;9.38;1.27;;;3.10;99.90;;;;;;5077486;28;20441;-82
2024/01/31 06:18:10;;;;;;;10.93;2.63;;;3.10;99.90;;;;;;5071946;28;20135;-85
2024/01/31 06:20:40;;;;;;;13.95;2.83;;;3.10;99.90;;;;;;5071856;28;20095;-91
2024/01/31 06:23:09;;;;;;;25.50;2.55;;;3.10;99.90;;;;;;5072340;28;20051;-87
2024/01/31 06:25:36;;;;;;;6.80;1.17;;;3.10;99.90;;;;;;5037512;28;20489;-88
2024/01/31 06:28:01;;;;;;;6.65;1.40;;;3.20;99.90;;;;;;5072207;28;20431;-89
2024/01/31 06:30:41;;;;;;;6.85;1.20;;;3.20;99.90;;;;;;5078836;28;20051;-91
2024/01/31 06:33:07;;;;;;;18.98;2.60;;;3.30;99.90;;;;;;5074484;28;20053;-87
2024/01/31 06:35:41;;;;;;;8.75;1.63;;;3.40;99.90;;;;;;5076100;28;20079;-93
2024/01/31 06:38:06;;;;;;;9.07;1.40;;;3.40;99.90;;;;;;5072779;28;20045;-93
2024/01/31 06:40:32;;;;;;;10.07;1.80;;;3.40;99.90;;;;;;5054455;28;20055;-82
2024/01/31 06:42:58;;;;;;;8.68;2.15;;;3.50;99.90;;;;;;5073441;28;20052;-92
2024/01/31 06:45:24;;;;;;;12.45;1.73;;;3.50;99.90;;;;;;5074511;28;20148;-93
2024/01/31 06:47:53;;;;;;;15.80;2.22;;;3.50;99.90;;;;;;5075732;28;20048;-83
2024/01/31 06:50:20;;;;;;;7.63;1.73;;;3.50;99.90;;;;;;5075292;28;20044;-89
2024/01/31 06:52:46;;;;;;;14.00;2.63;;;3.60;99.90;;;;;;5057277;28;20052;-91
2024/01/31 06:55:15;;;;;;;9.43;1.75;;;3.60;99.90;;;;;;5079698;28;20056;-81
2024/01/31 06:57:42;;;;;;;11.00;1.52;;;3.70;99.90;;;;;;5081830;28;20051;-84
2024/01/31 07:00:12;;;;;;;11.32;1.70;;;3.80;99.90;;;;;;5076102;28;20055;-88
2024/01/31 07:02:38;;;;;;;11.15;2.58;;;3.80;99.90;;;;;;5075006;28;20052;-90
2024/01/31 07:05:04;;;;;;;14.85;2.58;;;3.80;99.90;;;;;;5072037;28;20076;-92
2024/01/31 07:07:31;;;;;;;10.50;1.45;;;3.80;99.90;;;;;;5072384;28;20464;-93
2024/01/31 07:09:56;;;;;;;5.45;1.45;;;3.90;99.90;;;;;;5056023;28;20050;-88
2024/01/31 07:12:22;;;;;;;10.70;1.80;;;3.90;99.90;;;;;;5072563;28;20108;-93
2024/01/31 07:14:50;;;;;;;10.60;1.77;;;3.90;99.90;;;;;;5072714;28;20037;-93
2024/01/31 07:17:15;;;;;;;10.48;1.50;;;3.90;99.90;;;;;;5078827;28;20072;-91
2024/01/31 07:19:45;;;;;;;9.35;1.85;;;3.90;99.90;;;;;;5081071;28;20055;-91
2024/01/31 07:22:10;;;;;;;7.18;1.50;;;3.80;99.90;;;;;;5054287;28;20184;-89
2024/01/31 07:24:36;;;;;;;10.30;2.50;;;3.90;99.90;;;;;;5072514;28;20536;-91
2024/01/31 07:27:02;;;;;;;6.38;2.58;;;3.90;99.90;;;;;;5071890;28;20044;-88
2024/01/31 07:29:29;;;;;;;10.77;2.78;;;3.90;99.90;;;;;;5085234;28;20059;-88
2024/01/31 07:31:54;;;;;;;10.35;2.00;;;3.90;99.90;;;;;;5070041;28;20068;-92
2024/01/31 07:34:20;;;;;;;6.07;2.22;;;3.90;99.90;;;;;;5075570;28;20080;-89
2024/01/31 07:36:46;;;;;;;12.00;2.78;;;3.90;99.90;;;;;;5075159;28;20044;-91
2024/01/31 07:39:12;;;;;;;3.50;1.30;;;4.00;99.90;;;;;;5057412;28;20673;-93
2024/01/31 07:41:38;;;;;;;17.30;2.03;;;3.90;99.90;;;;;;5075317;28;20053;-89
2024/01/31 07:44:04;;;;;;;9.95;1.58;;;4.00;99.90;;;;;;5075043;28;20131;-90
2024/01/31 07:46:30;;;;;;;5.40;1.42;;;4.00;99.90;;;;;;5057021;28;20135;-90
2024/01/31 07:48:55;;;;;;;8.57;2.17;;;4.10;99.90;;;;;;5057009;28;20112;-93
2024/01/31 07:51:21;;;;;;;7.25;1.80;;;4.10;99.90;;;;;;5063045;28;20506;-94
2024/01/31 07:53:47;;;;;;;12.02;2.45;;;4.10;99.90;;;;;;5057204;28;20496;-92
2024/01/31 07:56:12;;;;;;;7.65;2.15;;;4.10;99.90;;;;;;5075291;28;20049;-86
2024/01/31 07:58:38;;;;;;;5.90;2.20;;;4.20;99.90;;;;;;5075388;28;20052;-89
2024/01/31 08:01:04;;;;;;;7.22;2.30;;;4.20;99.90;;;;;;5057633;28;20131;-87
2024/01/31 08:03:30;;;;;;;7.28;3.20;;;4.30;99.90;;;;;;5075822;28;20502;-91
2024/01/31 08:05:59;;;;;;;11.65;2.78;;;4.20;99.90;;;;;;5075156;28;20396;-86
2024/01/31 08:08:25;;;;;;;11.10;3.15;;;4.30;99.90;;;;;;5075964;28;20135;-93
2024/01/31 08:10:50;;;;;;;7.07;2.75;;;4.30;99.90;;;;;;5076681;28;20120;-78
2024/01/31 08:13:16;;;;;;;11.05;3.63;;;4.40;99.90;;;;;;5082769;28;20083;-80
2024/01/31 08:15:42;;;;;;;6.93;3.00;;;4.40;99.90;;;;;;5082726;28;20123;-78
2024/01/31 08:18:08;;;;;;;6.32;3.00;;;4.50;99.90;;;;;;5065397;28;20066;-81
2024/01/31 08:20:33;;;;;;;11.27;4.22;;;4.50;99.90;;;;;;5085185;28;20071;-77
2024/01/31 08:22:59;;;;;;;10.90;3.72;;;4.50;99.90;;;;;;5077308;28;20052;-87
2024/01/31 08:25:25;;;;;;;8.25;3.17;;;4.60;99.90;;;;;;5074063;28;20404;-85
2024/01/31 08:27:51;;;;;;;6.47;3.70;;;4.60;99.90;;;;;;5074152;28;20377;-87
2024/01/31 08:30:17;;;;;;;10.95;4.05;;;4.60;99.90;;;;;;5056350;28;20057;-87
2024/01/31 08:32:44;;;;;;;8.98;3.55;;;4.60;99.90;;;;;;5073432;28;20079;-89
2024/01/31 08:35:12;;;;;;;10.07;4.03;;;4.70;99.90;;;;;;5073625;28;20326;-90
2024/01/31 08:37:37;;;;;;;10.20;3.58;;;4.70;99.90;;;;;;5073486;28;20443;-86
2024/01/31 08:40:05;;;;;;;7.38;3.92;;;4.70;99.90;;;;;;5072692;28;20060;-93
2024/01/31 08:42:33;;;;;;;8.13;3.70;;;4.80;99.90;;;;;;5056620;28;20041;-94
2024/01/31 08:44:59;;;;;;;12.50;4.30;;;4.80;99.90;;;;;;5074301;28;20098;-90
2024/01/31 08:47:24;;;;;;;12.60;4.40;;;4.80;99.90;;;;;;5056061;28;20036;-95
2024/01/31 08:49:50;;;;;;;10.30;4.35;;;4.90;99.90;;;;;;5057975;28;20048;-89
2024/01/31 08:52:16;;;;;;;8.45;4.00;;;4.80;99.90;;;;;;5057191;28;20110;-94
2024/01/31 08:54:42;;;;;;;14.75;5.85;;;4.90;99.90;;;;;;5074527;28;20112;-94
2024/01/31 08:57:07;;;;;;;8.07;4.28;;;5.00;99.90;;;;;;5073304;28;20040;-80
2024/01/31 08:59:33;;;;;;;8.38;4.32;;;5.00;99.90;;;;;;5054583;28;20061;-87
2024/01/31 09:01:59;;;;;;;8.82;4.53;;;5.00;99.90;;;;;;5055189;28;20140;-79
2024/01/31 09:04:25;;;;;;;9.63;6.18;;;5.10;99.90;;;;;;5075007;28;20058;-84
2024/01/31 09:06:51;;;;;;;9.18;5.30;;;5.20;99.90;;;;;;5056312;28;20052;-81
2024/01/31 09:09:17;;;;;;;10.25;4.97;;;5.20;99.90;;;;;;5057588;28;20080;-80
2024/01/31 09:11:42;;;;;;;14.77;5.40;;;5.20;99.90;;;;;;5074963;28;20067;-81
2024/01/31 09:14:08;;;;;;;8.70;4.90;;;5.30;99.90;;;;;;5057133;28;20428;-87
2024/01/31 09:16:34;;;;;;;8.85;4.63;;;5.30;99.90;;;;;;5058196;28;20143;-93
2024/01/31 09:19:01;;;;;;;9.80;5.35;;;5.40;99.90;;;;;;5061585;28;20049;-94
2024/01/31 09:21:27;;;;;;;10.30;4.95;;;5.40;99.90;;;;;;5073265;28;20420;-93
2024/01/31 09:23:56;;;;;;;9.48;5.32;;;5.40;99.90;;;;;;5055616;28;20072;-93
2024/01/31 09:26:22;;;;;;;10.32;5.47;;;5.50;99.90;;;;;;5073137;28;20400;-86
2024/01/31 09:28:48;;;;;;;9.07;5.65;;;5.50;99.90;;;;;;5054420;28;20056;-85
2024/01/31 09:31:24;;;;;;;11.90;6.43;;;5.50;99.90;;;;;;5054600;28;20041;-82
2024/01/31 09:33:51;;;;;;;12.82;6.78;;;5.50;99.90;;;;;;5054740;28;20053;-90
2024/01/31 09:36:16;;;;;;;11.57;5.45;;;5.50;99.90;;;;;;5055580;28;20056;-85
2024/01/31 09:38:43;;;;;;;14.27;7.55;;;5.50;99.90;;;;;;5073290;28;20052;-88
2024/01/31 09:41:09;;;;;;;12.13;5.90;;;5.60;99.90;;;;;;5075508;28;20056;-93
2024/01/31 09:43:35;;;;;;;12.23;7.20;;;5.70;99.90;;;;;;5062620;28;20135;-81
2024/01/31 09:46:03;;;;;;;11.75;6.80;;;5.70;99.90;;;;;;5057468;28;20092;-93
2024/01/31 09:48:30;;;;;;;15.45;6.60;;;5.70;99.90;;;;;;5075691;28;20063;-93
2024/01/31 09:50:56;;;;;;;13.93;7.95;;;5.70;99.90;;;;;;5073992;28;20043;-92
2024/01/31 09:53:22;;;;;;;14.18;6.43;;;5.70;99.90;;;;;;5054866;28;20052;-90
2024/01/31 09:55:55;;;;;;;14.25;7.25;;;5.70;99.90;;;;;;5072675;28;20056;-92
2024/01/31 09:58:21;;;;;;;15.05;7.25;;;5.80;99.90;;;;;;5054939;28;20110;-93
2024/01/31 10:00:50;;;;;;;13.40;6.55;;;5.80;99.90;;;;;;5074423;28;20108;-87
2024/01/31 10:03:15;;;;;;;14.27;7.60;;;5.80;99.90;;;;;;5072846;28;20052;-94
2024/01/31 10:05:42;;;;;;;12.27;7.78;;;5.90;99.90;;;;;;5054035;28;20412;-90
2024/01/31 10:08:08;;;;;;;14.35;8.13;;;5.90;99.90;;;;;;5054641;28;20049;-93
2024/01/31 10:10:33;;;;;;;14.93;7.57;;;5.90;99.90;;;;;;5072247;28;20063;-92
2024/01/31 10:12:59;;;;;;;14.07;7.60;;;6.00;99.90;;;;;;5072534;28;20052;-90
2024/01/31 10:15:25;;;;;;;13.05;7.13;;;6.00;99.90;;;;;;5054557;28;20055;-94
2024/01/31 10:17:53;;;;;;;14.15;7.80;;;6.00;99.90;;;;;;5055023;28;20045;-92
2024/01/31 10:20:19;;;;;;;14.00;7.78;;;6.00;99.90;;;;;;5072328;28;20093;-81
2024/01/31 10:22:45;;;;;;;16.08;7.72;;;6.00;99.90;;;;;;5072409;28;20053;-78
2024/01/31 10:25:16;;;;;;;14.57;8.48;;;6.00;99.90;;;;;;5072109;28;20044;-86
2024/01/31 10:27:45;;;;;;;16.50;8.93;;;6.10;99.90;;;;;;5053799;28;20056;-89
2024/01/31 10:30:12;;;;;;;17.13;8.80;;;6.10;99.90;;;;;;5072639;28;20052;-93
2024/01/31 10:32:38;;;;;;;16.67;8.43;;;6.10;99.90;;;;;;5072844;28;20040;-93
2024/01/31 10:35:05;;;;;;;14.45;7.90;;;6.20;99.90;;;;;;5075022;28;20512;-83
2024/01/31 10:37:32;;;;;;;15.05;7.95;;;6.20;99.90;;;;;;5072036;28;20044;-91
2024/01/31 10:40:04;;;;;;;14.30;7.38;;;6.20;99.90;;;;;;5072134;28;20052;-79
2024/01/31 10:42:30;;;;;;;14.60;7.57;;;6.30;99.90;;;;;;5072104;28;20414;-79
2024/01/31 10:44:57;;;;;;;11.85;6.93;;;6.30;99.90;;;;;;5071866;28;20047;-82
2024/01/31 10:47:23;;;;;;;13.80;7.70;;;6.40;99.90;;;;;;5053489;28;20051;-93
2024/01/31 10:49:48;;;;;;;10.57;5.95;;;6.40;99.90;;;;;;5037399;28;20397;-84
2024/01/31 10:52:18;;;;;;;13.07;6.28;;;6.50;99.90;;;;;;5054220;28;20067;-89
2024/01/31 10:54:53;;;;;;;12.52;5.82;;;6.40;99.90;;;;;;5053626;28;20406;-84
2024/01/31 10:57:20;;;;;;;10.90;6.18;;;6.50;99.90;;;;;;5071997;28;20051;-78
2024/01/31 10:59:49;;;;;;;10.50;5.80;;;6.50;99.90;;;;;;5071856;28;20060;-83
2024/01/31 11:02:15;;;;;;;11.32;5.88;;;6.50;99.90;;;;;;5072259;28;20040;-91
2024/01/31 11:04:45;;;;;;;10.77;5.72;;;6.50;99.90;;;;;;5076228;28;20556;-77
2024/01/31 11:07:19;;;;;;;13.10;6.05;;;6.60;99.90;;;;;;5059096;28;20226;-78
2024/01/31 11:09:45;;;;;;;13.88;6.88;;;6.50;99.90;;;;;;5059759;28;20052;-89
2024/01/31 11:12:14;;;;;;;9.82;5.95;;;6.50;99.90;;;;;;5079607;28;20052;-94
2024/01/31 11:14:41;;;;;;;12.05;6.40;;;6.50;99.90;;;;;;5061502;28;20056;-91
2024/01/31 11:17:22;;;;;;;11.40;5.97;;;6.50;99.90;;;;;;5075361;28;20399;-88
2024/01/31 11:19:50;;;;;;;13.55;6.05;;;6.60;99.90;;;;;;5075790;28;20440;-79
2024/01/31 11:22:16;;;;;;;13.50;6.60;;;6.50;99.90;;;;;;5076080;28;20098;-91
2024/01/31 11:24:46;;;;;;;13.68;5.43;;;6.60;99.90;;;;;;5075676;28;20140;-88
2024/01/31 11:27:17;;;;;;;11.07;5.80;;;6.60;99.90;;;;;;5058014;28;20056;-90
2024/01/31 11:29:46;;;;;;;12.23;5.97;;;6.60;99.90;;;;;;5075566;28;20090;-88
2024/01/31 11:32:12;;;;;;;9.98;5.90;;;6.60;99.90;;;;;;5075563;28;20044;-93
2024/01/31 11:34:39;;;;;;;9.85;5.45;;;6.60;99.90;;;;;;5075325;28;20135;-95
2024/01/31 11:37:05;;;;;;;10.07;5.25;;;6.60;99.90;;;;;;5075247;28;20392;-83
2024/01/31 11:39:31;;;;;;;11.00;5.63;;;6.60;99.90;;;;;;5058416;28;20144;-88
2024/01/31 11:41:57;;;;;;;7.80;4.25;;;6.60;99.90;;;;;;5077309;28;20492;-89
2024/01/31 11:44:23;;;;;;;8.50;4.78;;;6.60;99.90;;;;;;5079815;28;20048;-83
2024/01/31 11:46:52;;;;;;;8.13;3.95;;;6.60;99.90;;;;;;5075324;28;20048;-87
2024/01/31 11:49:18;;;;;;;9.15;5.13;;;6.60;99.90;;;;;;5075174;28;20087;-84
2024/01/31 11:51:43;;;;;;;8.85;4.72;;;6.70;99.90;;;;;;5057248;28;20443;-90
2024/01/31 11:54:10;;;;;;;8.85;4.55;;;6.60;99.90;;;;;;5057255;28;20067;-83
2024/01/31 11:56:36;;;;;;;8.50;4.45;;;6.60;99.90;;;;;;5075032;28;20040;-84
2024/01/31 11:59:03;;;;;;;10.48;4.15;;;6.60;99.90;;;;;;5074783;28;20454;-85
2024/01/31 12:01:30;;;;;;;10.38;4.85;;;6.60;99.90;;;;;;5075636;28;20055;-84
2024/01/31 12:03:56;;;;;;;7.82;4.47;;;6.60;99.90;;;;;;5074400;28;20048;-83
2024/01/31 12:06:22;;;;;;;8.68;4.05;;;6.60;99.90;;;;;;5075395;28;20055;-89
2024/01/31 12:08:49;;;;;;;8.75;4.30;;;6.60;99.90;;;;;;5057113;28;20063;-80
2024/01/31 12:11:17;;;;;;;9.15;4.43;;;6.60;99.90;;;;;;5075214;28;20583;-85
2024/01/31 12:13:46;;;;;;;9.48;5.03;;;6.60;99.90;;;;;;5057246;28;20084;-87
2024/01/31 12:16:12;;;;;;;7.43;3.83;;;6.60;99.90;;;;;;5075026;28;20048;-85
2024/01/31 12:18:40;;;;;;;8.65;3.92;;;6.60;99.90;;;;;;5075188;28;20067;-94
2024/01/31 12:21:10;;;;;;;9.25;4.55;;;6.70;99.90;;;;;;5074518;28;20044;-90
2024/01/31 12:23:36;;;;;;;9.07;4.80;;;6.70;99.90;;;;;;5075089;28;20041;-93
2024/01/31 12:26:02;;;;;;;8.70;4.40;;;6.70;99.90;;;;;;5074679;28;20051;-87
2024/01/31 12:28:28;;;;;;;7.50;4.00;;;6.70;99.90;;;;;;5057130;28;20048;-83
2024/01/31 12:30:53;;;;;;;10.00;5.65;;;6.70;99.90;;;;;;5074814;28;20059;-89
2024/01/31 12:33:20;;;;;;;7.43;3.95;;;6.70;99.90;;;;;;5077521;28;20222;-94
2024/01/31 12:35:46;;;;;;;8.52;4.43;;;6.70;99.90;;;;;;5074002;28;20519;-92
2024/01/31 12:38:13;;;;;;;7.75;4.25;;;6.70;99.90;;;;;;5074837;28;20045;-90
2024/01/31 12:40:39;;;;;;;8.88;4.35;;;6.70;99.90;;;;;;5074284;28;20139;-82
2024/01/31 12:43:05;;;;;;;7.75;3.97;;;6.80;99.90;;;;;;5074123;28;20122;-82
2024/01/31 12:45:33;;;;;;;6.60;3.83;;;6.80;99.90;;;;;;5055950;28;20087;-87
2024/01/31 12:48:00;;;;;;;9.07;3.85;;;6.80;99.90;;;;;;5056040;28;20117;-86